Delta Pride — DSNG6 — position and weather

sailwx.info

Track history (hours):
 
Tides and Currents Weather Stations Pressure Air Temp Water Temp Dewpoint Dewpoint Depression Visibility Wind Speed Wind Dir Waves Ship Positions

Delta Pride

Last reported at 2015-Aug-26 20:32 UTC. Time now 2015-Sep-04 12:28 UTC.
Position N 48°31' W 126°28'.
Warning: this ship's position is 8 days out of date.

Length 186 m; draft 11.1 m.

Type: Cargo ship. MMSI: 441339000.

Date/timePositionNaut miles runAvg speedWind from/ knotsBaromVisibWave heightAir tempDewpointWater temp
2015-Aug-26 20:32N 48°31' W 126°28'1212.7
2015-Aug-26 19:33N 48°30' W 126°09'1212.2
2015-Aug-26 18:33N 48°30' W 125°51'1211.9
2015-Aug-26 17:33N 48°31' W 125°33'1712.6
2015-Aug-26 16:14N 48°31' W 125°08'5413.7
2015-Aug-26 12:17N 48°17' W 123°49'1214.7
2015-Aug-26 11:27N 48°16' W 123°31'1011.4
2015-Aug-26 10:33N 48°23' W 123°20'1110.7
2015-Aug-26 09:33N 48°33' W 123°13'1111.3
2015-Aug-26 08:33N 48°44' W 123°09'8 8.4
2015-Aug-26 07:33N 48°52' W 123°06'1312.6
2015-Aug-26 06:33N 49°01' W 123°19'1211.8
2015-Aug-26 05:33N 49°13' W 123°21'1010.1
2015-Aug-26 04:33N 49°19' W 123°09'4 3.5
2015-Aug-26 03:32N 49°18' W 123°03'0 0.0
2015-Aug-26 02:32N 49°18' W 123°03'0 0.0
2015-Aug-26 01:32N 49°18' W 123°03'0 0.0
2015-Aug-26 00:32N 49°18' W 123°03'0 0.0
2015-Aug-25 23:32N 49°18' W 123°03'0 0.0
2015-Aug-25 22:32N 49°18' W 123°03'0 0.0
2015-Aug-25 21:32N 49°18' W 123°03'0 0.0
2015-Aug-25 20:32N 49°18' W 123°03'0 0.0
2015-Aug-25 19:32N 49°18' W 123°03'0 0.0
2015-Aug-25 18:32N 49°18' W 123°03'0 0.0
2015-Aug-25 17:32N 49°18' W 123°03'0 0.0
2015-Aug-25 16:32N 49°18' W 123°03'0 0.0
2015-Aug-25 15:32N 49°18' W 123°03'0 0.0
2015-Aug-25 14:32N 49°18' W 123°03'0 0.0
2015-Aug-25 13:32N 49°18' W 123°03'0 0.0
2015-Aug-25 12:32N 49°18' W 123°03'0 0.0
2015-Aug-25 11:32N 49°18' W 123°03'0 0.0
2015-Aug-25 10:32N 49°18' W 123°03'0 0.0
2015-Aug-25 09:32N 49°18' W 123°03'0 0.0
2015-Aug-25 08:32N 49°18' W 123°03'0 0.0
2015-Aug-25 07:32N 49°18' W 123°03'0 0.0
2015-Aug-25 06:32N 49°18' W 123°03'0 0.0
2015-Aug-25 05:32N 49°18' W 123°03'0 0.0
2015-Aug-25 04:32N 49°18' W 123°03'0 0.0
2015-Aug-25 03:32N 49°18' W 123°03'0 0.0
2015-Aug-25 02:32N 49°18' W 123°03'0 0.0
2015-Aug-25 01:32N 49°18' W 123°03'0 0.0
2015-Aug-25 00:32N 49°18' W 123°03'0 0.0
2015-Aug-24 23:32N 49°18' W 123°03'0 0.0
2015-Aug-24 22:32N 49°18' W 123°03'0 0.0
2015-Aug-24 21:32N 49°18' W 123°03'2 1.7
2015-Aug-24 20:33N 49°18' W 123°06'9 9.0
2015-Aug-24 19:33N 49°15' W 123°19'1313.5
2015-Aug-24 18:34N 49°01' W 123°16'1514.6
2015-Aug-24 17:33N 48°50' W 123°01'1313.2
2015-Aug-24 16:33N 48°41' W 123°15'1312.7
2015-Aug-24 15:33N 48°29' W 123°10'1111.3
2015-Aug-24 14:34N 48°21' W 123°23'9 8.5
2015-Aug-24 13:27N 48°14' W 123°31'1111.8
2015-Aug-24 12:32N 48°13' W 123°47'5710.4
2015-Aug-24 07:06N 48°14' W 125°12'4612.6
2015-Aug-24 03:27N 47°37' W 125°53'1312.1
2015-Aug-24 02:25N 47°28' W 126°05'2812.4
2015-Aug-24 00:11N 46°60' W 126°05'1412.5
2015-Aug-23 23:03N 46°46' W 126°05'1112.5
2015-Aug-23 22:08N 46°34' W 126°05'812.4
2015-Aug-23 21:32N 46°27' W 126°04'1212.4
2015-Aug-23 20:33N 46°15' W 126°04'1212.2
2015-Aug-23 19:33N 46°02' W 126°04'1212.4
2015-Aug-23 18:33N 45°50' W 126°04'1312.5
2015-Aug-23 17:33N 45°38' W 126°05'1212.4
2015-Aug-23 16:34N 45°25' W 126°06'1211.9
2015-Aug-23 15:33N 45°13' W 126°04'1211.9
2015-Aug-23 14:31N 45°01' W 126°04'1212.3
2015-Aug-23 13:34N 44°49' W 126°05'1212.5
2015-Aug-23 12:34N 44°37' W 126°05'1412.4
2015-Aug-23 11:25N 44°23' W 126°05'1112.4
2015-Aug-23 10:33N 44°12' W 126°05'1312.3
2015-Aug-23 09:28N 43°59' W 126°05'2312.2
2015-Aug-23 07:33N 43°35' W 126°05'1212.2
2015-Aug-23 06:33N 43°23' W 126°06'1712.2
2015-Aug-23 05:10N 43°06' W 126°06'29410.9
2015-Aug-22 02:13N 38°27' W 124°07'812.2
2015-Aug-22 01:33N 38°23' W 123°58'1212.4
2015-Aug-22 00:33N 38°18' W 123°44'1212.5
2015-Aug-21 23:33N 38°13' W 123°29'1212.0
2015-Aug-21 22:33N 38°06' W 123°17'1211.9
2015-Aug-21 21:33N 37°58' W 123°06'1110.8
2015-Aug-21 20:33N 37°52' W 122°54'10 9.9
2015-Aug-21 19:34N 37°47' W 122°43'9 9.1
2015-Aug-21 18:33N 37°48' W 122°32'9 9.2
2015-Aug-21 17:34N 37°56' W 122°27'1212.5
2015-Aug-21 16:33N 38°04' W 122°14'1611.3
2015-Aug-21 15:09N 38°03' W 121°54'4 6.9
2015-Aug-21 14:33N 38°01' W 121°49'2 2.3
2015-Aug-21 13:33N 38°02' W 121°52'0 0.0
2015-Aug-21 12:33N 38°02' W 121°52'0 0.0
2015-Aug-21 11:33N 38°02' W 121°52'0 0.0
2015-Aug-21 10:33N 38°02' W 121°52'0 0.0
2015-Aug-21 09:27N 38°02' W 121°52'0 0.0
2015-Aug-21 08:30N 38°02' W 121°52'0 0.0
2015-Aug-21 07:33N 38°02' W 121°52'0 0.0
2015-Aug-21 06:33N 38°02' W 121°52'0 0.0
2015-Aug-21 05:30N 38°02' W 121°52'0 0.0
2015-Aug-21 04:30N 38°02' W 121°52'0 0.0
2015-Aug-21 00:30N 38°02' W 121°52'0 0.0
2015-Aug-20 21:24N 38°02' W 121°52'0 0.0
2015-Aug-20 17:24N 38°02' W 121°52'0 0.0
2015-Aug-20 16:06N 38°02' W 121°52'0 0.0
2015-Aug-20 10:12N 38°02' W 121°52'0 0.0
2015-Aug-20 09:30N 38°02' W 121°52'0 0.0
2015-Aug-20 06:30N 38°02' W 121°52'0 0.0
2015-Aug-20 05:24N 38°02' W 121°52'0 0.0
2015-Aug-20 03:30N 38°02' W 121°52'0 0.0
2015-Aug-20 02:30N 38°02' W 121°52'0 0.0
2015-Aug-20 00:30N 38°02' W 121°52'0 0.0
2015-Aug-19 23:30N 38°02' W 121°52'0 0.0
2015-Aug-19 19:23N 38°02' W 121°52'0 0.0
2015-Aug-19 17:24N 38°02' W 121°52'0 0.0
2015-Aug-19 16:24N 38°02' W 121°52'0 0.0
2015-Aug-19 15:30N 38°02' W 121°52'0 0.0
2015-Aug-19 14:33N 38°02' W 121°52'6 5.9
2015-Aug-19 13:32N 38°04' W 121°59'10 9.0
2015-Aug-19 12:27N 38°03' W 122°12'1112.1
2015-Aug-19 11:34N 38°00' W 122°25'1111.3
2015-Aug-19 10:33N 37°49' W 122°25'1211.7
2015-Aug-19 09:33N 37°45' W 122°39'8 7.9
2015-Aug-19 08:33N 37°41' W 122°47'6 6.5
2015-Aug-19 07:33N 37°37' W 122°54'8 8.1
2015-Aug-19 06:33N 37°33' W 123°02'1110.6
2015-Aug-19 05:33N 37°33' W 123°16'1111.1
2015-Aug-19 04:33N 37°33' W 123°30'9 9.2
2015-Aug-19 03:33N 37°35' W 123°41'1 0.6
2015-Aug-19 02:33N 37°35' W 123°41'0 0.2
2015-Aug-19 01:33N 37°35' W 123°41'1110.6
2015-Aug-19 00:34N 37°35' W 123°54'1312.6
2015-Aug-18 23:33N 37°35' W 124°10'1312.5
2015-Aug-18 22:33N 37°36' W 124°26'1212.1
2015-Aug-18 21:32N 37°37' W 124°42'1412.4
2015-Aug-18 20:25N 37°38' W 124°59'1312.6
2015-Aug-18 19:23N 37°38' W 125°15'1213.1
2015-Aug-18 18:29N 37°39' W 125°30'1612.6
2015-Aug-18 17:12N 37°41' W 125°51'7112.1
2015-Aug-18 11:19N 37°45' W 127°20'2111.8
2015-Aug-18 09:33N 37°48' W 127°46'  
Track history (hours):
 
Tides and Currents Weather Stations Pressure Air Temp Water Temp Dewpoint Dewpoint Depression Visibility Wind Speed Wind Dir Waves Ship Positions

Delta Pride

Last reported at 2015-Aug-26 20:32 UTC. Time now 2015-Sep-04 12:28 UTC.
Position N 48°31' W 126°28'.
Warning: this ship's position is 8 days out of date.

Length 186 m; draft 11.1 m.

Type: Cargo ship. MMSI: 441339000.

Date/timePositionNaut miles runAvg speedWind from/ knotsBaromVisibWave heightAir tempDewpointWater temp
2015-Aug-26 20:32N 48°31' W 126°28'1212.7
2015-Aug-26 19:33N 48°30' W 126°09'1212.2
2015-Aug-26 18:33N 48°30' W 125°51'1211.9
2015-Aug-26 17:33N 48°31' W 125°33'1712.6
2015-Aug-26 16:14N 48°31' W 125°08'5413.7
2015-Aug-26 12:17N 48°17' W 123°49'1214.7
2015-Aug-26 11:27N 48°16' W 123°31'1011.4
2015-Aug-26 10:33N 48°23' W 123°20'1110.7
2015-Aug-26 09:33N 48°33' W 123°13'1111.3
2015-Aug-26 08:33N 48°44' W 123°09'8 8.4
2015-Aug-26 07:33N 48°52' W 123°06'1312.6
2015-Aug-26 06:33N 49°01' W 123°19'1211.8
2015-Aug-26 05:33N 49°13' W 123°21'1010.1
2015-Aug-26 04:33N 49°19' W 123°09'4 3.5
2015-Aug-26 03:32N 49°18' W 123°03'0 0.0
2015-Aug-26 02:32N 49°18' W 123°03'0 0.0
2015-Aug-26 01:32N 49°18' W 123°03'0 0.0
2015-Aug-26 00:32N 49°18' W 123°03'0 0.0
2015-Aug-25 23:32N 49°18' W 123°03'0 0.0
2015-Aug-25 22:32N 49°18' W 123°03'0 0.0
2015-Aug-25 21:32N 49°18' W 123°03'0 0.0
2015-Aug-25 20:32N 49°18' W 123°03'0 0.0
2015-Aug-25 19:32N 49°18' W 123°03'0 0.0
2015-Aug-25 18:32N 49°18' W 123°03'0 0.0
2015-Aug-25 17:32N 49°18' W 123°03'0 0.0
2015-Aug-25 16:32N 49°18' W 123°03'0 0.0
2015-Aug-25 15:32N 49°18' W 123°03'0 0.0
2015-Aug-25 14:32N 49°18' W 123°03'0 0.0
2015-Aug-25 13:32N 49°18' W 123°03'0 0.0
2015-Aug-25 12:32N 49°18' W 123°03'0 0.0
2015-Aug-25 11:32N 49°18' W 123°03'0 0.0
2015-Aug-25 10:32N 49°18' W 123°03'0 0.0
2015-Aug-25 09:32N 49°18' W 123°03'0 0.0
2015-Aug-25 08:32N 49°18' W 123°03'0 0.0
2015-Aug-25 07:32N 49°18' W 123°03'0 0.0
2015-Aug-25 06:32N 49°18' W 123°03'0 0.0
2015-Aug-25 05:32N 49°18' W 123°03'0 0.0
2015-Aug-25 04:32N 49°18' W 123°03'0 0.0
2015-Aug-25 03:32N 49°18' W 123°03'0 0.0
2015-Aug-25 02:32N 49°18' W 123°03'0 0.0
2015-Aug-25 01:32N 49°18' W 123°03'0 0.0
2015-Aug-25 00:32N 49°18' W 123°03'0 0.0
2015-Aug-24 23:32N 49°18' W 123°03'0 0.0
2015-Aug-24 22:32N 49°18' W 123°03'0 0.0
2015-Aug-24 21:32N 49°18' W 123°03'2 1.7
2015-Aug-24 20:33N 49°18' W 123°06'9 9.0
2015-Aug-24 19:33N 49°15' W 123°19'1313.5
2015-Aug-24 18:34N 49°01' W 123°16'1514.6
2015-Aug-24 17:33N 48°50' W 123°01'1313.2
2015-Aug-24 16:33N 48°41' W 123°15'1312.7
2015-Aug-24 15:33N 48°29' W 123°10'1111.3
2015-Aug-24 14:34N 48°21' W 123°23'9 8.5
2015-Aug-24 13:27N 48°14' W 123°31'1111.8
2015-Aug-24 12:32N 48°13' W 123°47'5710.4
2015-Aug-24 07:06N 48°14' W 125°12'4612.6
2015-Aug-24 03:27N 47°37' W 125°53'1312.1
2015-Aug-24 02:25N 47°28' W 126°05'2812.4
2015-Aug-24 00:11N 46°60' W 126°05'1412.5
2015-Aug-23 23:03N 46°46' W 126°05'1112.5
2015-Aug-23 22:08N 46°34' W 126°05'812.4
2015-Aug-23 21:32N 46°27' W 126°04'1212.4
2015-Aug-23 20:33N 46°15' W 126°04'1212.2
2015-Aug-23 19:33N 46°02' W 126°04'1212.4
2015-Aug-23 18:33N 45°50' W 126°04'1312.5
2015-Aug-23 17:33N 45°38' W 126°05'1212.4
2015-Aug-23 16:34N 45°25' W 126°06'1211.9
2015-Aug-23 15:33N 45°13' W 126°04'1211.9
2015-Aug-23 14:31N 45°01' W 126°04'1212.3
2015-Aug-23 13:34N 44°49' W 126°05'1212.5
2015-Aug-23 12:34N 44°37' W 126°05'1412.4
2015-Aug-23 11:25N 44°23' W 126°05'1112.4
2015-Aug-23 10:33N 44°12' W 126°05'1312.3
2015-Aug-23 09:28N 43°59' W 126°05'2312.2
2015-Aug-23 07:33N 43°35' W 126°05'1212.2
2015-Aug-23 06:33N 43°23' W 126°06'1712.2
2015-Aug-23 05:10N 43°06' W 126°06'29410.9
2015-Aug-22 02:13N 38°27' W 124°07'812.2
2015-Aug-22 01:33N 38°23' W 123°58'1212.4
2015-Aug-22 00:33N 38°18' W 123°44'1212.5
2015-Aug-21 23:33N 38°13' W 123°29'1212.0
2015-Aug-21 22:33N 38°06' W 123°17'1211.9
2015-Aug-21 21:33N 37°58' W 123°06'1110.8
2015-Aug-21 20:33N 37°52' W 122°54'10 9.9
2015-Aug-21 19:34N 37°47' W 122°43'9 9.1
2015-Aug-21 18:33N 37°48' W 122°32'9 9.2
2015-Aug-21 17:34N 37°56' W 122°27'1212.5
2015-Aug-21 16:33N 38°04' W 122°14'1611.3
2015-Aug-21 15:09N 38°03' W 121°54'4 6.9
2015-Aug-21 14:33N 38°01' W 121°49'2 2.3
2015-Aug-21 13:33N 38°02' W 121°52'0 0.0
2015-Aug-21 12:33N 38°02' W 121°52'0 0.0
2015-Aug-21 11:33N 38°02' W 121°52'0 0.0
2015-Aug-21 10:33N 38°02' W 121°52'0 0.0
2015-Aug-21 09:27N 38°02' W 121°52'0 0.0
2015-Aug-21 08:30N 38°02' W 121°52'0 0.0
2015-Aug-21 07:33N 38°02' W 121°52'0 0.0
2015-Aug-21 06:33N 38°02' W 121°52'0 0.0
2015-Aug-21 05:30N 38°02' W 121°52'0 0.0
2015-Aug-21 04:30N 38°02' W 121°52'0 0.0
2015-Aug-21 00:30N 38°02' W 121°52'0 0.0
2015-Aug-20 21:24N 38°02' W 121°52'0 0.0
2015-Aug-20 17:24N 38°02' W 121°52'0 0.0
2015-Aug-20 16:06N 38°02' W 121°52'0 0.0
2015-Aug-20 10:12N 38°02' W 121°52'0 0.0
2015-Aug-20 09:30N 38°02' W 121°52'0 0.0
2015-Aug-20 06:30N 38°02' W 121°52'0 0.0
2015-Aug-20 05:24N 38°02' W 121°52'0 0.0
2015-Aug-20 03:30N 38°02' W 121°52'0 0.0
2015-Aug-20 02:30N 38°02' W 121°52'0 0.0
2015-Aug-20 00:30N 38°02' W 121°52'0 0.0
2015-Aug-19 23:30N 38°02' W 121°52'0 0.0
2015-Aug-19 19:23N 38°02' W 121°52'0 0.0
2015-Aug-19 17:24N 38°02' W 121°52'0 0.0
2015-Aug-19 16:24N 38°02' W 121°52'0 0.0
2015-Aug-19 15:30N 38°02' W 121°52'0 0.0
2015-Aug-19 14:33N 38°02' W 121°52'6 5.9
2015-Aug-19 13:32N 38°04' W 121°59'10 9.0
2015-Aug-19 12:27N 38°03' W 122°12'1112.1
2015-Aug-19 11:34N 38°00' W 122°25'1111.3
2015-Aug-19 10:33N 37°49' W 122°25'1211.7
2015-Aug-19 09:33N 37°45' W 122°39'8 7.9
2015-Aug-19 08:33N 37°41' W 122°47'6 6.5
2015-Aug-19 07:33N 37°37' W 122°54'8 8.1
2015-Aug-19 06:33N 37°33' W 123°02'1110.6
2015-Aug-19 05:33N 37°33' W 123°16'1111.1
2015-Aug-19 04:33N 37°33' W 123°30'9 9.2
2015-Aug-19 03:33N 37°35' W 123°41'1 0.6
2015-Aug-19 02:33N 37°35' W 123°41'0 0.2
2015-Aug-19 01:33N 37°35' W 123°41'1110.6
2015-Aug-19 00:34N 37°35' W 123°54'1312.6
2015-Aug-18 23:33N 37°35' W 124°10'1312.5
2015-Aug-18 22:33N 37°36' W 124°26'1212.1
2015-Aug-18 21:32N 37°37' W 124°42'1412.4
2015-Aug-18 20:25N 37°38' W 124°59'1312.6
2015-Aug-18 19:23N 37°38' W 125°15'1213.1
2015-Aug-18 18:29N 37°39' W 125°30'1612.6
2015-Aug-18 17:12N 37°41' W 125°51'7112.1
2015-Aug-18 11:19N 37°45' W 127°20'2111.8
2015-Aug-18 09:33N 37°48' W 127°46'  

Dump ship's entire track history